Time;durP1;ratioP1;P1;durP2;ratioP2;P2;SDS_P1;SDS_P2;PMS_P1;PMS_P2;Temp;Humidity;BMP_temperature;BMP_pressure;BME280_temperature;BME280_humidity;BME280_pressure;Samples;Min_cycle;Max_cycle;Signal;HPM_P1;HPM_P2
2022/02/25 05:02:20;;;;;;;6.20;2.37;;;;;;;7.92;47.55;99391.31;3362198;23;20246;-72
2022/02/25 05:05:43;;;;;;;5.33;2.70;;;;;;;7.62;48.42;99421.63;6837474;28;20234;-73
2022/02/25 05:09:05;;;;;;;3.27;2.43;;;;;;;8.33;46.91;99411.63;6863259;28;20221;-73
2022/02/25 05:12:27;;;;;;;6.27;2.77;;;;;;;8.20;46.69;99425.63;6863435;28;20204;-73
2022/02/25 05:23:13;;;;;;;8.47;2.60;;;;;;;8.17;46.89;99438.53;6852658;28;20244;-73
2022/02/25 05:26:35;;;;;;;3.43;2.37;;;;;;;8.65;45.56;99435.59;6846951;28;20651;-73
2022/02/25 05:29:57;;;;;;;6.10;2.80;;;;;;;8.40;46.26;99434.94;6863220;28;20205;-73
2022/02/25 05:33:18;;;;;;;5.30;2.40;;;;;;;8.49;46.35;99446.47;6863376;28;20205;-73
2022/02/25 05:36:41;;;;;;;8.10;2.63;;;;;;;8.08;47.35;99442.28;6863015;28;20213;-73
2022/02/25 05:40:07;;;;;;;7.83;2.50;;;;;;;8.29;46.76;99448.75;6863169;28;20209;-73
2022/02/25 05:43:29;;;;;;;3.20;2.47;;;;;;;8.63;45.93;99443.88;6863314;28;20207;-73
2022/02/25 05:46:51;;;;;;;7.80;2.93;;;;;;;8.26;46.76;99442.91;6862046;28;20227;-73
2022/02/25 05:50:16;;;;;;;3.57;2.37;;;;;;;8.42;47.17;99464.31;6862734;28;20239;-73
2022/02/25 05:53:39;;;;;;;4.83;2.60;;;;;;;8.21;46.58;99467.59;6862539;28;20698;-73
2022/02/25 05:57:01;;;;;;;8.43;2.70;;;;;;;8.08;46.58;99482.56;6862318;28;20204;-73
2022/02/25 06:00:23;;;;;;;8.90;3.03;;;;;;;8.30;46.14;99474.59;6862927;28;20546;-73
2022/02/25 06:03:45;;;;;;;6.13;2.70;;;;;;;8.50;46.58;99485.78;6862167;28;20236;-73
2022/02/25 06:07:06;;;;;;;5.00;2.90;;;;;;;8.33;46.00;99473.41;6862412;28;20219;-73
2022/02/25 06:10:29;;;;;;;5.07;3.13;;;;;;;8.87;45.62;99488.56;6861660;28;20226;-73
2022/02/25 06:13:51;;;;;;;4.17;2.70;;;;;;;8.25;47.33;99505.69;6861887;28;20225;-73
2022/02/25 06:17:13;;;;;;;5.83;2.50;;;;;;;8.74;45.85;99508.00;6861863;28;20671;-73
2022/02/25 06:20:35;;;;;;;6.07;2.80;;;;;;;8.09;47.23;99493.13;6861687;28;20279;-73
2022/02/25 06:23:56;;;;;;;4.57;3.40;;;;;;;8.45;47.30;99499.75;6860583;28;20263;-73
2022/02/25 06:27:19;;;;;;;4.27;2.60;;;;;;;8.15;47.80;99515.75;6862051;28;20211;-73
2022/02/25 06:30:41;;;;;;;5.93;2.80;;;;;;;8.35;47.35;99515.22;6861756;28;20664;-73
2022/02/25 06:34:03;;;;;;;6.63;2.83;;;;;;;8.36;47.33;99518.75;6861427;28;20229;-73
2022/02/25 06:37:27;;;;;;;5.63;2.47;;;;;;;8.60;47.11;99516.78;6861802;28;20675;-73
2022/02/25 06:40:48;;;;;;;8.77;3.23;;;;;;;8.36;47.89;99521.44;6860515;28;20667;-73
2022/02/25 06:44:11;;;;;;;6.37;3.63;;;;;;;8.06;48.88;99523.00;6861922;28;20547;-73
2022/02/25 06:47:33;;;;;;;10.77;3.50;;;;;;;7.74;49.92;99511.50;6861481;28;20208;-73
2022/02/25 06:50:55;;;;;;;9.80;3.03;;;;;;;7.59;50.20;99534.63;6861646;28;20635;-73
2022/02/25 06:54:16;;;;;;;4.87;3.30;;;;;;;7.83;49.36;99534.66;6861046;28;20256;-73
2022/02/25 06:57:38;;;;;;;5.90;4.13;;;;;;;7.59;50.07;99530.13;6861435;28;20574;-73
2022/02/25 07:01:02;;;;;;;10.63;3.70;;;;;;;7.45;50.15;99544.22;6861510;28;20205;-73
2022/02/25 07:04:24;;;;;;;7.53;3.27;;;;;;;7.58;50.21;99533.81;6861442;28;20212;-73
2022/02/25 07:07:46;;;;;;;9.83;3.73;;;;;;;7.76;49.77;99537.16;6861118;28;20247;-73
2022/02/25 07:11:07;;;;;;;8.10;3.77;;;;;;;7.57;50.00;99542.03;6861422;28;20344;-73
2022/02/25 07:14:29;;;;;;;7.37;3.77;;;;;;;8.07;49.63;99548.84;6861194;28;20568;-73
2022/02/25 07:17:52;;;;;;;7.13;3.13;;;;;;;8.72;47.12;99539.56;6860359;28;20216;-73
2022/02/25 07:21:13;;;;;;;2.37;2.17;;;;;;;8.89;46.78;99548.41;6861268;28;20312;-73
2022/02/25 07:24:35;;;;;;;3.03;2.43;;;;;;;9.44;45.92;99539.97;6861022;28;20202;-73
2022/02/25 07:27:57;;;;;;;3.83;2.87;;;;;;;9.73;44.75;99534.66;6861040;28;20209;-73
2022/02/25 07:31:19;;;;;;;9.37;2.50;;;;;;;9.66;44.18;99557.97;6860909;28;20205;-73
2022/02/25 07:34:44;;;;;;;5.90;2.80;;;;;;;9.88;43.50;99562.47;6859579;28;20222;-75
2022/02/25 07:38:06;;;;;;;4.60;2.73;;;;;;;9.63;44.69;99565.56;6866443;28;20594;-74
2022/02/25 07:41:27;;;;;;;5.33;2.60;;;;;;;10.07;43.05;99558.44;6866226;28;20248;-75
2022/02/25 07:44:49;;;;;;;5.00;2.50;;;;;;;10.47;42.38;99566.09;6865883;28;20197;-74
2022/02/25 07:48:11;;;;;;;4.97;2.60;;;;;;;10.00;41.69;99438.94;6866408;28;20221;-75
2022/02/25 07:51:34;;;;;;;4.70;2.63;;;;;;;10.13;42.34;99546.94;6866020;28;20252;-75
2022/02/25 07:54:56;;;;;;;6.40;2.80;;;;;;;9.46;43.03;99494.84;6866120;28;20249;-76
2022/02/25 07:58:18;;;;;;;7.43;2.97;;;;;;;10.43;42.37;99581.81;6865857;28;20220;-73
2022/02/25 08:01:40;;;;;;;5.80;3.07;;;;;;;10.40;40.73;99478.91;6862181;28;20228;-75
2022/02/25 08:05:01;;;;;;;5.90;2.60;;;;;;;10.42;42.35;99574.75;6857225;28;20636;-73
2022/02/25 08:08:25;;;;;;;4.90;2.60;;;;;;;11.04;41.45;99591.34;6854385;28;20346;-73
2022/02/25 08:11:47;;;;;;;4.30;2.80;;;;;;;11.22;41.65;99591.78;6865582;28;20213;-74
2022/02/25 08:15:10;;;;;;;5.33;2.63;;;;;;;11.34;40.91;99579.47;6863838;28;20286;-73
2022/02/25 08:18:32;;;;;;;4.53;2.40;;;;;;;11.61;40.45;99570.63;6856420;28;20205;-75
2022/02/25 08:21:54;;;;;;;5.20;2.47;;;;;;;10.72;40.65;99519.78;6843211;28;20695;-73
2022/02/25 08:25:17;;;;;;;4.43;2.50;;;;;;;11.96;39.54;99577.81;6838995;28;20233;-74
2022/02/25 08:28:39;;;;;;;9.23;2.90;;;;;;;12.24;39.10;99587.63;6855736;28;20207;-74
2022/02/25 08:32:02;;;;;;;5.23;3.00;;;;;;;12.10;38.98;99593.13;6860504;28;20212;-74
2022/02/25 08:35:23;;;;;;;7.97;4.37;;;;;;;12.53;38.57;99590.09;6863950;28;20236;-74
2022/02/25 08:38:46;;;;;;;12.63;7.43;;;;;;;12.51;37.76;99535.34;6862547;28;20209;-74
2022/02/25 08:42:09;;;;;;;8.63;4.50;;;;;;;11.69;37.64;99489.47;6862530;28;20209;-73
2022/02/25 08:45:31;;;;;;;7.77;3.87;;;;;;;11.92;39.18;99587.34;6862978;28;20209;-74
2022/02/25 08:48:52;;;;;;;8.50;2.90;;;;;;;13.03;36.38;99573.53;6864533;28;20211;-74
2022/02/25 08:52:14;;;;;;;5.37;3.90;;;;;;;11.92;37.64;99481.97;6863886;28;20211;-74
2022/02/25 08:55:36;;;;;;;6.67;2.50;;;;;;;12.34;36.34;99516.97;6860162;28;20234;-74
2022/02/25 08:58:59;;;;;;;6.40;2.90;;;;;;;12.56;36.63;99586.19;6839649;28;20218;-74
2022/02/25 09:02:21;;;;;;;8.03;3.10;;;;;;;12.68;36.14;99582.69;6836618;29;20220;-74
2022/02/25 09:05:42;;;;;;;7.63;2.80;;;;;;;12.87;35.16;99492.63;6836232;29;20679;-74
2022/02/25 09:09:05;;;;;;;8.30;2.87;;;;;;;13.75;33.68;99566.41;6836241;29;20223;-74
2022/02/25 09:12:27;;;;;;;6.50;2.40;;;;;;;13.39;34.15;99546.16;6836340;29;20549;-74
2022/02/25 09:15:50;;;;;;;7.50;2.33;;;;;;;13.04;35.52;99567.06;6835833;28;20235;-74
2022/02/25 09:19:12;;;;;;;9.90;2.77;;;;;;;13.83;33.97;99568.94;6835883;28;20237;-74
2022/02/25 09:22:34;;;;;;;7.23;2.70;;;;;;;13.85;32.27;99482.81;6854528;28;20216;-75
2022/02/25 09:25:56;;;;;;;7.53;2.60;;;;;;;12.03;33.93;99476.00;6862615;28;20204;-74
2022/02/25 09:29:17;;;;;;;8.93;2.60;;;;;;;13.67;33.72;99573.91;6863674;28;20256;-73
2022/02/25 09:32:41;;;;;;;3.63;2.00;;;;;;;13.31;33.68;99538.22;6862841;28;20210;-75
2022/02/25 09:36:04;;;;;;;6.67;2.53;;;;;;;12.94;34.94;99588.25;6863441;28;20540;-74
2022/02/25 09:39:25;;;;;;;4.73;2.40;;;;;;;12.87;36.18;99578.44;6863181;28;20214;-75
2022/02/25 09:42:48;;;;;;;5.90;2.50;;;;;;;12.59;35.71;99574.94;6863407;28;20231;-75
2022/02/25 09:46:10;;;;;;;5.10;2.50;;;;;;;11.50;37.90;99581.91;6862460;28;20217;-76
2022/02/25 09:49:33;;;;;;;25.87;9.57;;;;;;;12.29;37.92;99568.94;6861863;28;20220;-78
2022/02/25 09:52:55;;;;;;;35.97;24.00;;;;;;;12.86;37.20;99571.34;6861910;28;20227;-77
2022/02/25 09:56:16;;;;;;;4.60;2.00;;;;;;;11.95;35.85;99481.53;6861418;28;20230;-74
2022/02/25 09:59:38;;;;;;;3.20;2.47;;;;;;;12.07;36.32;99552.94;6861133;28;20221;-74
2022/02/25 10:03:02;;;;;;;5.47;2.00;;;;;;;11.22;36.34;99535.09;6859625;28;20238;-74
2022/02/25 10:06:31;;;;;;;7.23;3.00;;;;;;;10.71;36.19;99503.78;6861442;28;20216;-74
2022/02/25 10:09:54;;;;;;;8.17;2.37;;;;;;;10.78;35.83;99505.53;6861270;28;20216;-75
2022/02/25 10:13:18;;;;;;;6.07;3.77;;;;;;;11.20;35.61;99577.63;6860309;28;20221;-75
2022/02/25 10:16:40;;;;;;;7.03;2.53;;;;;;;11.17;36.40;99576.13;6861141;28;20589;-74
2022/02/25 10:20:04;;;;;;;5.17;2.60;;;;;;;11.06;36.00;99536.19;6861253;28;20216;-75
2022/02/25 10:23:30;;;;;;;4.03;2.17;;;;;;;10.98;35.94;99587.53;6861496;28;20368;-74
2022/02/25 10:26:52;;;;;;;6.63;2.47;;;;;;;11.46;35.21;99577.94;6858024;28;20656;-78
2022/02/25 10:30:16;;;;;;;5.30;2.00;;;;;;;11.21;34.22;99498.34;6858768;28;20213;-78
2022/02/25 10:33:46;;;;;;;9.93;2.50;;;;;;;11.05;35.83;99528.25;6860637;28;20212;-78
2022/02/25 10:37:08;;;;;;;5.60;2.40;;;;;;;11.54;34.86;99569.69;6862873;28;20214;-78
2022/02/25 10:40:33;;;;;;;7.23;2.60;;;;;;;10.66;35.57;99500.81;6861980;28;20209;-79
2022/02/25 10:43:55;;;;;;;6.03;2.40;;;;;;;11.18;35.51;99579.69;6862104;28;20207;-79
2022/02/25 10:47:19;;;;;;;5.53;2.23;;;;;;;9.96;34.88;99467.25;6862293;28;20687;-79
2022/02/25 10:50:49;;;;;;;4.93;2.10;;;;;;;11.07;34.58;99586.41;6862059;28;20205;-78
2022/02/25 10:54:12;;;;;;;5.37;2.00;;;;;;;11.95;34.57;99573.44;6862457;28;20627;-79
2022/02/25 10:57:36;;;;;;;6.10;2.47;;;;;;;12.32;32.75;99563.13;6862453;28;20237;-78
2022/02/25 11:01:01;;;;;;;4.90;2.00;;;;;;;11.47;33.15;99450.81;6861333;28;20534;-78
2022/02/25 11:04:23;;;;;;;4.90;1.90;;;;;;;12.06;33.33;99452.13;6862102;28;20241;-78
2022/02/25 11:07:46;;;;;;;7.43;2.80;;;;;;;11.53;33.98;99435.69;6862087;28;20206;-78
2022/02/25 11:11:08;;;;;;;5.73;2.73;;;;;;;12.09;34.65;99557.13;6867003;28;20204;-78
2022/02/25 11:14:31;;;;;;;6.00;2.40;;;;;;;12.43;33.87;99557.16;6867101;28;20229;-78
2022/02/25 11:17:53;;;;;;;5.07;2.30;;;;;;;12.15;34.81;99520.38;6867190;28;20709;-77
2022/02/25 11:21:16;;;;;;;6.47;2.37;;;;;;;11.89;33.65;99480.47;6867177;28;20242;-77
2022/02/25 11:24:38;;;;;;;6.27;2.30;;;;;;;11.74;34.06;99522.94;6867328;28;20227;-77
2022/02/25 11:28:00;;;;;;;4.43;2.40;;;;;;;12.01;34.15;99524.84;6866701;28;20636;-77
2022/02/25 11:31:26;;;;;;;5.27;2.50;;;;;;;10.46;33.89;99414.28;6866777;28;20299;-77
2022/02/25 11:34:51;;;;;;;6.63;2.23;;;;;;;10.83;34.63;99499.56;6866199;28;20205;-77
2022/02/25 11:38:12;;;;;;;11.50;2.77;;;;;;;11.31;34.53;99486.19;6865573;28;20201;-77
2022/02/25 11:41:34;;;;;;;6.17;2.37;;;;;;;11.50;32.71;99495.47;6851125;28;20205;-77
2022/02/25 11:45:06;;;;;;;5.40;2.23;;;;;;;11.99;31.85;99570.13;6866520;28;20228;-77
2022/02/25 11:48:39;;;;;;;6.70;2.33;;;;;;;10.85;33.15;99511.84;6865685;28;20212;-77
2022/02/25 11:52:02;;;;;;;5.13;2.13;;;;;;;11.47;33.38;99521.03;6866522;28;20204;-77
2022/02/25 11:55:24;;;;;;;5.47;2.13;;;;;;;10.56;33.11;99457.97;6864835;28;20714;-77
2022/02/25 11:58:47;;;;;;;3.93;2.20;;;;;;;11.18;32.47;99480.66;6865736;28;20205;-76
2022/02/25 12:02:11;;;;;;;4.33;2.27;;;;;;;12.24;32.55;99538.94;6865369;28;20221;-77
2022/02/25 12:05:39;;;;;;;2.57;2.00;;;;;;;11.85;32.71;99538.63;6865308;28;20636;-78
2022/02/25 12:09:03;;;;;;;3.53;2.63;;;;;;;12.12;31.76;99547.78;6865332;28;20278;-78
2022/02/25 12:12:37;;;;;;;4.53;2.00;;;;;;;11.25;33.11;99513.09;6865723;28;20301;-77
2022/02/25 12:15:59;;;;;;;10.77;2.90;;;;;;;11.75;31.93;99540.84;6865501;28;20238;-77
2022/02/25 12:19:22;;;;;;;6.33;2.87;;;;;;;11.03;32.48;99450.19;6864166;28;20205;-77
2022/02/25 12:22:50;;;;;;;3.53;2.57;;;;;;;11.31;32.65;99436.75;6865603;28;20213;-78
2022/02/25 12:26:12;;;;;;;3.50;2.50;;;;;;;12.04;31.90;99469.56;6865585;28;20213;-77
2022/02/25 12:29:35;;;;;;;3.27;2.27;;;;;;;12.53;31.35;99537.88;6864969;28;20213;-78
2022/02/25 12:32:59;;;;;;;5.27;2.20;;;;;;;11.36;31.18;99394.66;6864995;28;20272;-77
2022/02/25 12:36:45;;;;;;;3.70;2.20;;;;;;;11.75;31.56;99532.72;6865264;28;20214;-78
2022/02/25 12:40:10;;;;;;;6.50;2.27;;;;;;;11.05;32.67;99407.66;6864130;28;20213;-72
2022/02/25 12:43:31;;;;;;;3.63;2.07;;;;;;;11.31;32.04;99505.09;6864540;28;20213;-72
2022/02/25 12:46:57;;;;;;;6.60;2.20;;;;;;;11.93;31.66;99497.94;6861591;28;20215;-73
2022/02/25 12:50:19;;;;;;;5.10;2.10;;;;;;;12.08;31.71;99495.16;6864127;28;20210;-73
2022/02/25 12:53:51;;;;;;;6.80;2.67;;;;;;;11.30;32.47;99473.72;6864575;28;20218;-72
2022/02/25 12:57:14;;;;;;;7.77;2.50;;;;;;;11.09;34.02;99478.28;6864319;28;20229;-72
2022/02/25 13:00:36;;;;;;;8.83;4.93;;;;;;;11.78;33.81;99532.34;6864050;28;20227;-74
2022/02/25 13:03:59;;;;;;;10.67;4.60;;;;;;;11.56;33.40;99433.44;6864615;28;20252;-74
2022/02/25 13:07:22;;;;;;;9.27;6.53;;;;;;;12.06;33.20;99518.84;6864084;28;20204;-74
2022/02/25 13:10:44;;;;;;;7.30;3.03;;;;;;;11.97;33.19;99547.03;6863689;28;20213;-74
2022/02/25 13:14:15;;;;;;;4.30;2.57;;;;;;;11.47;34.25;99534.53;6862657;28;20229;-73
2022/02/25 13:17:37;;;;;;;6.83;3.10;;;;;;;10.95;34.28;99490.78;6862190;28;20307;-72
2022/02/25 13:21:01;;;;;;;4.60;1.97;;;;;;;11.01;34.79;99511.63;6862357;28;20236;-75
2022/02/25 13:24:22;;;;;;;5.47;2.57;;;;;;;11.66;34.51;99536.63;6854275;28;20214;-75
2022/02/25 13:27:46;;;;;;;3.73;2.43;;;;;;;11.57;34.53;99529.63;6862145;28;20211;-76
2022/02/25 13:31:09;;;;;;;7.77;2.90;;;;;;;11.50;34.61;99514.38;6862279;28;20216;-75
2022/02/25 13:34:31;;;;;;;5.83;2.43;;;;;;;11.73;34.81;99539.34;6860454;28;20652;-74
2022/02/25 13:37:57;;;;;;;5.70;2.47;;;;;;;11.77;34.95;99541.50;6862836;28;20600;-75
2022/02/25 13:41:19;;;;;;;5.63;2.90;;;;;;;12.18;34.63;99541.59;6841315;28;20193;-75
2022/02/25 13:44:40;;;;;;;4.23;2.40;;;;;;;11.04;34.71;99484.25;6848789;28;20236;-75
2022/02/25 13:55:34;;;;;;;6.27;2.73;;;;;;;11.74;35.62;99522.13;6826351;28;20214;-75
2022/02/25 13:59:04;;;;;;;5.97;2.30;;;;;;;11.16;35.58;99542.09;6861302;28;20221;-75
2022/02/25 14:02:28;;;;;;;6.63;2.97;;;;;;;11.01;37.58;99570.97;6860314;28;20582;-75
2022/02/25 14:05:51;;;;;;;5.23;2.30;;;;;;;10.64;38.74;99589.97;6861632;28;20235;-75
2022/02/25 14:09:17;;;;;;;6.17;2.80;;;;;;;11.01;39.76;99559.34;6861515;28;20209;-75
2022/02/25 14:12:46;;;;;;;6.53;2.60;;;;;;;10.87;39.64;99571.81;6861099;28;20270;-75
2022/02/25 14:16:07;;;;;;;6.93;2.37;;;;;;;10.59;40.05;99567.31;6861139;28;20235;-74
2022/02/25 14:19:29;;;;;;;4.97;2.37;;;;;;;10.33;41.96;99531.91;6856212;28;20232;-75
2022/02/25 14:23:00;;;;;;;7.20;3.07;;;;;;;10.34;41.90;99582.09;6861691;28;20270;-75
2022/02/25 14:26:27;;;;;;;8.57;2.53;;;;;;;10.47;42.20;99585.81;6861264;28;20211;-75
2022/02/25 14:30:00;;;;;;;5.03;2.43;;;;;;;9.97;43.80;99606.31;6860958;28;20205;-74
2022/02/25 14:33:23;;;;;;;4.83;2.90;;;;;;;10.54;42.45;99613.72;6860151;28;20228;-74
2022/02/25 14:36:44;;;;;;;10.13;3.90;;;;;;;10.48;43.45;99598.28;6861215;28;20232;-74
2022/02/25 14:40:10;;;;;;;8.77;2.60;;;;;;;10.46;43.78;99608.38;6860227;28;20230;-75
2022/02/25 14:43:32;;;;;;;7.80;2.83;;;;;;;10.35;43.45;99610.72;6860094;28;20216;-75
2022/02/25 14:46:53;;;;;;;5.83;2.10;;;;;;;10.49;43.32;99588.31;6860844;28;20722;-74
2022/02/25 14:50:15;;;;;;;7.10;2.37;;;;;;;10.66;43.69;99612.22;6860694;28;20216;-75
2022/02/25 14:53:37;;;;;;;5.80;2.77;;;;;;;9.72;44.31;99526.75;6860798;28;20247;-74
2022/02/25 14:57:00;;;;;;;8.47;3.17;;;;;;;9.93;44.98;99610.41;6860548;28;20376;-75
2022/02/25 15:00:24;;;;;;;8.03;3.13;;;;;;;10.14;45.69;99618.66;6860080;28;20228;-74
2022/02/25 15:03:46;;;;;;;7.40;3.13;;;;;;;10.51;45.45;99611.38;6859754;28;20228;-74
2022/02/25 15:07:08;;;;;;;6.33;3.57;;;;;;;10.73;45.11;99617.69;6860283;28;20251;-74
2022/02/25 15:10:30;;;;;;;7.63;3.60;;;;;;;10.84;45.77;99620.78;6860316;28;20216;-75
2022/02/25 15:13:56;;;;;;;7.57;2.87;;;;;;;10.48;47.72;99619.84;6860003;28;20696;-75
2022/02/25 15:17:18;;;;;;;8.90;3.40;;;;;;;10.82;47.48;99624.69;6860291;28;20225;-75
2022/02/25 15:20:39;;;;;;;4.20;2.43;;;;;;;11.10;45.31;99598.69;6859719;28;20229;-75
2022/02/25 15:24:01;;;;;;;7.80;4.03;;;;;;;10.78;47.26;99623.38;6851039;28;20218;-76
2022/02/25 15:27:23;;;;;;;11.13;4.50;;;;;;;11.14;45.70;99579.22;6834865;29;20213;-75
2022/02/25 15:30:47;;;;;;;8.43;3.47;;;;;;;10.94;44.79;99613.25;6835332;29;20213;-75
2022/02/25 15:34:09;;;;;;;5.47;3.27;;;;;;;11.44;45.05;99615.06;6846968;28;20229;-77
2022/02/25 15:37:30;;;;;;;13.83;7.77;;;;;;;11.54;43.82;99580.50;6861642;28;20236;-75
2022/02/25 15:40:53;;;;;;;4.40;3.23;;;;;;;11.21;43.73;99590.94;6861033;28;20257;-76
2022/02/25 15:44:15;;;;;;;6.00;3.87;;;;;;;10.28;44.70;99523.53;6861675;28;20578;-75
2022/02/25 15:47:38;;;;;;;6.23;3.50;;;;;;;11.39;43.40;99615.66;6861470;28;20211;-76
2022/02/25 15:51:03;;;;;;;7.60;5.53;;;;;;;10.99;43.95;99574.91;6861743;28;20209;-78
2022/02/25 15:54:25;;;;;;;7.70;3.00;;;;;;;11.09;44.36;99630.22;6862600;28;20549;-78
2022/02/25 15:57:46;;;;;;;5.10;2.50;;;;;;;10.93;44.46;99619.63;6865977;28;20237;-79
2022/02/25 16:01:08;;;;;;;3.30;2.53;;;;;;;10.74;44.89;99624.78;6866305;28;20287;-87
2022/02/25 16:04:32;;;;;;;5.60;2.60;;;;;;;10.48;44.47;99535.41;6865035;28;20205;-77
2022/02/25 16:07:55;;;;;;;8.37;2.27;;;;;;;9.84;45.12;99525.31;6863915;28;20212;-78
2022/02/25 16:11:16;;;;;;;47.50;21.03;;;;;;;10.90;44.92;99628.13;6842735;28;20577;-77
2022/02/25 16:14:38;;;;;;;11.83;6.80;;;;;;;10.57;44.23;99513.56;6865635;28;20224;-72
2022/02/25 16:18:00;;;;;;;11.80;5.80;;;;;;;11.41;43.24;99619.00;6865579;28;20229;-75
2022/02/25 16:21:23;;;;;;;7.73;3.83;;;;;;;11.20;43.83;99639.69;6865294;28;20239;-75
2022/02/25 16:24:45;;;;;;;8.63;2.83;;;;;;;10.59;44.58;99578.09;6863986;28;20233;-76
2022/02/25 16:28:06;;;;;;;5.40;2.83;;;;;;;11.66;42.75;99658.16;6864694;28;20232;-74
2022/02/25 16:31:28;;;;;;;5.50;2.77;;;;;;;10.81;44.55;99604.13;6864386;28;20229;-75
2022/02/25 16:34:50;;;;;;;6.43;2.73;;;;;;;10.84;44.04;99593.81;6864721;28;20598;-75
2022/02/25 16:38:13;;;;;;;7.30;3.17;;;;;;;10.66;44.14;99590.66;6864308;28;20240;-75
2022/02/25 16:41:35;;;;;;;9.57;3.50;;;;;;;10.77;43.84;99586.63;6864414;28;20213;-74
2022/02/25 16:44:57;;;;;;;8.17;3.10;;;;;;;10.78;43.66;99574.81;6864393;28;20231;-75
2022/02/25 16:48:18;;;;;;;6.30;2.73;;;;;;;11.14;43.79;99683.63;6864596;28;20229;-74
2022/02/25 16:51:40;;;;;;;12.33;7.10;;;;;;;11.17;44.17;99685.97;6864892;28;20205;-75
2022/02/25 16:55:05;;;;;;;19.10;9.30;;;;;;;10.75;44.75;99645.34;6865053;28;20212;-77
2022/02/25 16:58:27;;;;;;;18.03;8.07;;;;;;;10.84;45.15;99695.47;6844203;28;20237;-78
2022/02/25 17:01:48;;;;;;;5.37;3.00;;;;;;;11.04;44.63;99702.81;6859168;28;20263;-78
2022/02/25 17:05:10;;;;;;;5.47;2.80;;;;;;;10.28;45.12;99562.09;6864023;28;20217;-78
2022/02/25 17:08:32;;;;;;;7.73;3.33;;;;;;;11.01;45.38;99689.72;6864108;28;20213;-78
2022/02/25 17:11:55;;;;;;;6.63;3.40;;;;;;;10.20;45.68;99602.59;6863983;28;20200;-78
2022/02/25 17:15:17;;;;;;;5.93;3.10;;;;;;;10.28;45.76;99609.78;6864334;28;20201;-78
2022/02/25 17:18:38;;;;;;;4.47;2.47;;;;;;;10.70;45.74;99674.72;6864343;28;20318;-79
2022/02/25 17:22:00;;;;;;;8.57;4.57;;;;;;;10.65;45.88;99726.53;6849828;28;20202;-79
2022/02/25 17:25:23;;;;;;;7.40;3.07;;;;;;;11.18;45.04;99729.00;6836948;29;20217;-75
2022/02/25 17:28:46;;;;;;;5.77;2.90;;;;;;;10.97;45.07;99714.53;6837144;29;20687;-75
2022/02/25 17:32:08;;;;;;;4.93;2.80;;;;;;;10.82;45.73;99703.75;6854929;28;20205;-75
2022/02/25 17:35:31;;;;;;;6.53;2.50;;;;;;;11.14;45.18;99738.47;6849168;28;20238;-75
2022/02/25 17:38:53;;;;;;;4.97;2.90;;;;;;;11.17;45.06;99724.59;6842896;28;20239;-75
2022/02/25 17:42:15;;;;;;;6.23;2.77;;;;;;;10.89;45.27;99738.91;6851173;28;20205;-75
2022/02/25 17:45:38;;;;;;;9.33;2.83;;;;;;;10.80;45.85;99730.06;6849320;28;20201;-75
2022/02/25 17:49:00;;;;;;;7.03;3.13;;;;;;;10.90;45.66;99743.28;6852539;28;20210;-75
2022/02/25 17:52:21;;;;;;;5.47;3.20;;;;;;;10.29;46.50;99719.25;6862424;28;20205;-74
2022/02/25 17:55:44;;;;;;;5.47;2.80;;;;;;;10.13;47.40;99746.34;6862853;28;20212;-75
2022/02/25 17:59:05;;;;;;;8.20;2.87;;;;;;;9.71;49.21;99754.81;6861625;28;20595;-75
2022/02/25 18:02:32;;;;;;;5.80;2.73;;;;;;;9.74;49.69;99786.78;6862549;28;20222;-75
2022/02/25 18:05:55;;;;;;;9.73;5.03;;;;;;;9.74;49.78;99788.66;6861408;28;20217;-75
2022/02/25 18:09:17;;;;;;;7.83;3.37;;;;;;;9.29;50.30;99801.94;6861741;28;20202;-74
2022/02/25 18:12:39;;;;;;;6.00;3.10;;;;;;;9.35;50.51;99795.88;6854032;28;20349;-75
2022/02/25 18:16:01;;;;;;;13.60;4.43;;;;;;;9.62;49.69;99792.75;6854802;28;20702;-75
2022/02/25 18:19:24;;;;;;;6.43;3.37;;;;;;;9.38;50.42;99799.03;6860243;28;20227;-75
2022/02/25 18:22:46;;;;;;;9.80;3.37;;;;;;;9.33;50.46;99800.59;6862297;28;20212;-75
2022/02/25 18:26:08;;;;;;;6.13;3.10;;;;;;;9.26;50.23;99789.66;6861516;28;20209;-75
2022/02/25 18:29:29;;;;;;;7.10;2.93;;;;;;;9.42;50.16;99803.09;6862128;28;20666;-75
2022/02/25 18:32:52;;;;;;;10.07;2.77;;;;;;;9.40;49.94;99807.78;6861161;28;20252;-75
2022/02/25 18:36:15;;;;;;;3.97;2.63;;;;;;;9.06;51.06;99803.69;6859569;28;20221;-75
2022/02/25 18:39:36;;;;;;;6.70;2.93;;;;;;;9.50;49.93;99805.72;6858715;28;20264;-75
2022/02/25 18:42:58;;;;;;;5.00;2.73;;;;;;;9.48;49.34;99813.16;6860444;28;20251;-75
2022/02/25 18:46:20;;;;;;;6.60;3.20;;;;;;;9.54;48.83;99808.91;6860128;28;20225;-75
2022/02/25 18:49:42;;;;;;;8.50;3.60;;;;;;;9.55;47.98;99808.75;6860208;28;20221;-75
2022/02/25 18:53:05;;;;;;;6.13;3.30;;;;;;;9.79;47.71;99819.41;6860142;28;20233;-75
2022/02/25 18:56:26;;;;;;;12.30;3.27;;;;;;;9.28;48.52;99825.31;6859556;28;20282;-75
2022/02/25 18:59:48;;;;;;;9.97;2.90;;;;;;;9.17;49.00;99795.25;6859965;28;20276;-75
2022/02/25 19:03:10;;;;;;;8.43;3.43;;;;;;;9.50;48.73;99804.91;6859612;28;20241;-75
2022/02/25 19:06:31;;;;;;;8.30;3.40;;;;;;;9.05;49.37;99828.91;6853532;28;20244;-75
2022/02/25 19:09:54;;;;;;;9.17;4.23;;;;;;;9.68;48.68;99822.47;6861359;28;20208;-75
2022/02/25 19:13:16;;;;;;;14.43;4.60;;;;;;;8.71;47.83;99653.50;6860895;28;20237;-75
2022/02/25 19:16:38;;;;;;;7.53;3.60;;;;;;;9.66;48.32;99834.44;6861601;28;20228;-75
2022/02/25 19:20:02;;;;;;;6.80;3.23;;;;;;;9.52;47.25;99789.41;6862236;28;20235;-79
2022/02/25 19:23:24;;;;;;;6.23;3.40;;;;;;;9.65;47.57;99830.06;6861026;28;20209;-74
2022/02/25 19:26:47;;;;;;;8.87;4.20;;;;;;;9.72;47.53;99833.75;6860601;28;20210;-75
2022/02/25 19:30:10;;;;;;;14.93;8.47;;;;;;;9.52;48.06;99835.19;6862516;28;20205;-75
2022/02/25 19:33:32;;;;;;;4.47;3.17;;;;;;;8.55;48.28;99712.66;6850765;28;20225;-75
2022/02/25 19:36:55;;;;;;;8.80;3.73;;;;;;;9.17;48.23;99841.81;6865395;28;20315;-75
2022/02/25 19:40:16;;;;;;;8.33;3.43;;;;;;;8.81;47.77;99725.91;6863848;28;20247;-75
2022/02/25 19:43:39;;;;;;;7.67;3.77;;;;;;;9.52;48.33;99860.22;6864869;28;20216;-75
2022/02/25 19:47:01;;;;;;;6.17;3.10;;;;;;;9.77;48.05;99858.31;6864907;28;20243;-75
2022/02/25 19:50:23;;;;;;;7.07;3.37;;;;;;;9.65;48.85;99859.69;6865245;28;20544;-75
2022/02/25 19:53:45;;;;;;;8.07;3.80;;;;;;;9.61;48.69;99861.03;6865041;28;20680;-75
2022/02/25 19:57:07;;;;;;;6.23;3.93;;;;;;;9.83;48.34;99857.59;6863920;28;20233;-74
2022/02/25 20:00:30;;;;;;;9.00;3.53;;;;;;;9.47;48.96;99851.84;6864889;28;20240;-74
2022/02/25 20:03:51;;;;;;;9.03;3.37;;;;;;;9.04;49.89;99811.91;6863690;28;20726;-74
2022/02/25 20:07:14;;;;;;;7.97;3.33;;;;;;;9.40;49.68;99872.38;6864891;28;20237;-74
2022/02/25 20:10:35;;;;;;;7.27;3.23;;;;;;;9.42;49.70;99872.22;6864241;28;20295;-74
2022/02/25 20:13:57;;;;;;;6.93;3.53;;;;;;;9.44;49.72;99889.03;6863845;28;20217;-74
2022/02/25 20:17:22;;;;;;;4.87;3.63;;;;;;;9.46;49.24;99882.44;6864468;28;20216;-74
2022/02/25 20:20:43;;;;;;;7.63;3.10;;;;;;;9.69;48.70;99898.72;6864251;28;20220;-74
2022/02/25 20:24:06;;;;;;;11.23;3.60;;;;;;;9.86;48.77;99897.66;6850740;28;20209;-73
2022/02/25 20:27:28;;;;;;;7.97;4.13;;;;;;;10.01;47.67;99904.00;6855738;28;20228;-74
2022/02/25 20:30:50;;;;;;;6.27;3.50;;;;;;;9.74;48.04;99899.06;6862170;28;20243;-74
2022/02/25 20:34:13;;;;;;;7.53;3.20;;;;;;;9.38;48.38;99869.03;6838686;28;20669;-74
2022/02/25 20:37:35;;;;;;;7.33;3.80;;;;;;;9.57;48.56;99868.63;6837282;29;20607;-74
2022/02/25 20:40:57;;;;;;;9.07;3.63;;;;;;;9.70;48.72;99920.09;6835429;28;20579;-73
2022/02/25 20:44:19;;;;;;;4.83;3.00;;;;;;;9.81;48.58;99924.28;6845162;28;20279;-74
2022/02/25 20:47:41;;;;;;;7.67;3.93;;;;;;;9.23;48.03;99849.22;6860554;28;20229;-74
2022/02/25 20:51:04;;;;;;;10.47;6.63;;;;;;;9.32;48.99;99917.31;6864478;28;20244;-74
2022/02/25 20:54:26;;;;;;;10.90;5.63;;;;;;;9.72;48.56;99936.06;6864039;28;20217;-74
2022/02/25 20:57:48;;;;;;;9.53;6.20;;;;;;;9.78;49.22;99949.72;6864384;28;20260;-74
2022/02/25 21:01:09;;;;;;;14.50;9.03;;;;;;;9.63;49.01;99939.81;6863332;28;20209;-74
2022/02/25 21:04:31;;;;;;;9.60;4.73;;;;;;;9.94;49.05;99946.13;6863430;28;20569;-74
2022/02/25 21:07:54;;;;;;;8.57;5.30;;;;;;;9.47;49.67;99923.69;6863046;28;20205;-74
2022/02/25 21:11:16;;;;;;;8.70;4.10;;;;;;;9.75;49.67;99973.44;6845206;28;20233;-74
2022/02/25 21:14:38;;;;;;;10.17;5.00;;;;;;;9.77;49.54;99933.72;6864063;28;20252;-74